Anderson Regional Airport
KAND : now visible

Airfield :











YOU CAN JOIN US ON...

 
LOGIN :

Register | Disclaimer

   EN    FR    IT 

 









Legend :    VFR   Marginal VFR   IFR   Intensive IFR   Very Intensive IFR
Visi :
Ceiling :
>= 8 km
>= 3000ft
5 to 8 km
1000 to 3000 ft
1500m to 5 km
500 to 1000 ft
800 to 1500m
200 to 500 ft
< 800m
< 200 ft
Symbols :   Thunderstorms  Fog  Heavy snow  Heavy precipitations  Wind > 20 kt






- Airport Elevation : 782 ft


KAND - Anderson Regional

CURRENT METAR :
  • 031956Z AUTO 09004KT 10SM FEW055 34/22 A3002 RMK AO2 LTG DSNT N SLP153 T03440217

EXPIRED METARs :
  • 031856Z AUTO 10006KT 10SM SCT055 33/20 A3003 RMK AO2 SLP156 T03330200
  • 030456Z AUTO 00000KT 10SM CLR 24/23 A3003 RMK AO2 SLP158 T02440233 403280206
  • 031756Z AUTO 30003KT 10SM CLR 34/20 A3004 RMK AO2 SLP162 T03390200 10339 20239 58015

TAF KAND
Valid from the 03 at 18:00 until the 04 at 18:00 UTC


031740Z 0318/0418 04004KT P6SM SCT110
FM031900 23005KT P6SM VCTS BKN050CB
FM032300 30008KT P6SM VCTS BKN060CB
FM040200 03006KT P6SM BKN120
FM041500 06007KT P6SM SCT250
KZTL FIR / North America



MET'MAP, your aeronautical weather chart ! - Copyright ORBIFLY December 2007 - Disclaimer

ORBIFLY MET'MAP TEAM :

Programming & Development : Alexandra Zaïnal
Original concept : Baudouin d'Aumeries
Technical & hardware support : Manuel Goepfert
Assistance : Marc-Olivier Méhu




SOURCES & CREDITS :

   NOAA       Earth
Advisory